Latest Weather Observations for Creal Reef

IDQ60801

Issued at 5:05 pm EST Tuesday 22 July 2014 (issued every 30 minutes, with the page automatically refreshed every 10 minutes)

About weather observations | Map of weather stations | Latest weather observations for QLD | Other Formats
Station Details ID: 200736 Name: CREAL REEF Lat: -20.53 Lon: 150.38 Height: 1.7 m
Data from the previous 72 hours. | See also: Recent months for locations in Queensland
Date/Time
EST
Temp
°C
App
Temp
°C
Dew
Point
Rel
Hum
%
Delta-T
°C
Wind Press
QNH
hPa
Press
MSL
hPa
Rain
since 9 am
mm
Dir
 
Spd
km/h
Gust
km/h
Spd
kts
Gust
kts
22/05:00pm 20.4 - - - - SSE 26 33 14 18 1017.1 - -
22/04:30pm 20.5 - - - - S 26 30 14 16 1016.8 - -
22/04:20pm 20.7 - - - - S 28 - 15 - - 1016.7 -
22/04:00pm 20.6 - - - - S 28 32 15 17 1016.7 - -
22/03:30pm 20.6 - - - - S 26 32 14 17 1016.7 - -
22/03:20pm 20.5 - - - - S 28 - 15 - - 1016.5 -
22/03:00pm 20.7 - - - - S 28 33 15 18 1016.6 - -
22/02:30pm 20.6 - - - - SSE 24 32 13 17 1016.8 - -
22/02:20pm 20.7 - - - - S 24 - 13 - - 1016.7 -
22/02:00pm 20.7 - - - - S 26 30 14 16 1016.9 - -
22/01:30pm 20.6 - - - - S 26 30 14 16 1017.2 - -
22/01:20pm 20.7 - - - - S 24 - 13 - - 1017.2 -
22/01:00pm 20.7 - - - - S 24 30 13 16 1017.5 - -
22/12:30pm 20.7 - - - - S 26 32 14 17 1018.0 - -
22/12:20pm 20.6 - - - - SSE 24 - 13 - - 1018.1 -
22/12:00pm 20.7 - - - - S 24 30 13 16 1018.5 - -
22/11:30am 20.6 - - - - S 26 32 14 17 1019.1 - -
22/11:20am 20.7 - - - - S 26 - 14 - - 1019.1 -
22/11:00am 20.6 - - - - S 26 30 14 16 1019.4 - -
22/10:30am 20.6 - - - - SSE 28 33 15 18 1019.9 - -
22/10:20am 20.7 - - - - S 28 - 15 - - 1019.8 -
22/10:00am 20.6 - - - - S 28 32 15 17 1020.0 - -
22/09:30am 20.8 - - - - S 26 30 14 16 1020.2 - -
22/09:20am 20.9 - - - - S 26 - 14 - - 1020.1 -
22/09:00am 20.7 - - - - S 26 30 14 16 1020.1 - -
22/08:30am 21.0 - - - - S 24 28 13 15 1020.0 - -
22/08:20am 21.0 - - - - S 22 - 12 - - 1019.9 -
22/08:00am 20.9 - - - - S 24 30 13 16 1019.8 - -
22/07:30am 20.9 - - - - S 22 28 12 15 1019.6 - -
22/07:20am 20.9 - - - - S 22 - 12 - - 1019.5 -
22/07:00am 20.9 - - - - S 22 26 12 14 1019.4 - -
22/06:30am 20.8 - - - - S 20 24 11 13 1019.1 - -
22/06:20am 20.7 - - - - S 20 - 11 - - 1018.9 -
22/06:00am 20.6 - - - - S 19 24 10 13 1018.6 - -
22/05:30am 20.7 - - - - S 17 20 9 11 1018.3 - -
22/05:20am 20.8 - - - - S 19 - 10 - - 1018.1 -
22/05:00am 20.7 - - - - S 19 22 10 12 1018.1 - -
22/04:30am 20.5 - - - - S 19 22 10 12 1018.0 - -
22/04:20am 20.4 - - - - S 19 - 10 - - 1017.8 -
22/04:00am 20.3 - - - - SSE 19 22 10 12 1017.9 - -
22/03:30am 20.3 - - - - SSE 19 20 10 11 1018.1 - -
22/03:20am 20.4 - - - - S 19 - 10 - - 1018.0 -
22/03:00am 20.4 - - - - S 20 24 11 13 1018.1 - -
22/02:30am 20.3 - - - - SSE 20 26 11 14 1018.2 - -
22/02:20am 20.4 - - - - S 22 - 12 - - 1018.2 -
22/02:00am 20.4 - - - - SSE 20 24 11 13 1018.6 - -
22/01:30am 20.5 - - - - SSE 20 26 11 14 1019.0 - -
22/01:20am 20.5 - - - - SSE 19 - 10 - - 1019.0 -
22/01:00am 20.6 - - - - SSE 20 26 11 14 1019.3 - -
22/12:30am 20.6 - - - - SSE 20 26 11 14 1019.5 - -
22/12:20am 20.7 - - - - SSE 20 - 11 - - 1019.5 -
22/12:00am 20.7 - - - - SSE 20 26 11 14 1019.8 - -
 
Date/Time
EST
Temp
°C
App
Temp
°C
Dew
Point
Rel
Hum
%
Delta-T
°C
Wind Press
QNH
hPa
Press
MSL
hPa
Rain
since 9 am
mm
Dir
 
Spd
km/h
Gust
km/h
Spd
kts
Gust
kts
21/11:30pm 20.6 - - - - SSE 22 26 12 14 1019.7 - -
21/11:20pm 20.7 - - - - SSE 22 - 12 - - 1019.7 -
21/11:00pm 20.8 - - - - SSE 22 28 12 15 1020.0 - -
21/10:30pm 20.8 - - - - SSE 26 32 14 17 1020.1 - -
21/10:20pm 20.8 - - - - SSE 24 - 13 - - 1020.0 -
21/10:00pm 20.8 - - - - SSE 24 30 13 16 1020.2 - -
21/09:30pm 21.0 - - - - SSE 24 33 13 18 1020.2 - -
21/09:20pm 20.9 - - - - SSE 26 - 14 - - 1020.0 -
21/08:30pm 20.9 - - - - SSE 28 33 15 18 1019.9 - -
21/08:20pm 20.9 - - - - SSE 26 - 14 - - 1019.7 -
21/08:00pm 21.0 - - - - SSE 28 35 15 19 1019.6 - -
21/07:30pm 21.0 - - - - SSE 30 37 16 20 1019.5 - -
21/07:20pm 20.9 - - - - SSE 28 - 15 - - 1019.2 -
21/07:00pm 20.9 - - - - SSE 28 32 15 17 1019.1 - -
21/06:30pm 20.9 - - - - SSE 24 33 13 18 1018.9 - -
21/06:20pm 20.9 - - - - SSE 26 - 14 - - 1018.7 -
21/06:00pm 21.0 - - - - SSE 26 33 14 18 1018.6 - -
21/05:30pm 21.1 - - - - SSE 28 35 15 19 1018.3 - -
21/05:20pm 21.0 - - - - SSE 26 - 14 - - 1018.1 -
21/05:00pm 21.1 - - - - SSE 24 33 13 18 1018.1 - -
21/04:30pm 21.0 - - - - SSE 28 35 15 19 1017.9 - -
21/04:20pm 20.7 - - - - SSE 28 - 15 - - 1017.7 -
21/04:00pm 20.5 - - - - SSE 30 35 16 19 1017.7 - -
21/03:30pm 20.9 - - - - SSE 26 33 14 18 1017.6 - -
21/03:20pm 20.8 - - - - SSE 26 - 14 - - 1017.5 -
21/03:00pm 20.6 - - - - SSE 28 35 15 19 1017.6 - -
21/02:30pm 20.5 - - - - S 32 39 17 21 1017.5 - -
21/02:20pm 20.6 - - - - S 30 - 16 - - 1017.4 -
21/02:00pm 20.9 - - - - S 28 33 15 18 1017.6 - -
21/01:30pm 20.6 - - - - S 30 33 16 18 1018.0 - -
21/01:20pm 20.7 - - - - S 30 - 16 - - 1017.9 -
21/01:00pm 20.7 - - - - S 30 33 16 18 1018.2 - -
21/12:30pm 20.5 - - - - S 30 35 16 19 1018.5 - -
21/12:20pm 20.5 - - - - SSE 28 - 15 - - 1018.6 -
21/12:00pm 20.5 - - - - S 30 33 16 18 1019.0 - -
21/11:30am 20.7 - - - - SSE 32 35 17 19 1019.4 - -
21/11:20am 20.5 - - - - S 33 - 18 - - 1019.5 -
21/11:00am 20.9 - - - - S 28 35 15 19 1019.8 - -
21/10:30am 21.2 - - - - SSE 24 32 13 17 1020.1 - -
21/10:20am 20.8 - - - - S 24 - 13 - - 1020.0 -
21/10:00am 20.5 - - - - S 20 24 11 13 1020.3 - -
21/09:30am 20.4 - - - - S 19 24 10 13 1020.5 - -
21/09:20am 20.1 - - - - S 20 - 11 - - 1020.5 -
21/09:00am 20.1 - - - - S 17 20 9 11 1020.6 - -
21/08:30am 20.0 - - - - S 17 22 9 12 1020.6 - -
21/08:20am 20.0 - - - - S 17 - 9 - - 1020.4 -
21/08:00am 19.8 - - - - SSE 17 24 9 13 1020.5 - -
21/07:30am 19.7 - - - - SSE 17 20 9 11 1020.1 - -
21/07:20am 19.7 - - - - S 19 - 10 - - 1019.9 -
21/07:00am 19.6 - - - - SSE 19 24 10 13 1019.8 - -
21/06:30am 19.4 - - - - S 19 24 10 13 1019.5 - -
21/06:20am 19.4 - - - - SSE 17 - 9 - - 1019.3 -
21/06:00am 19.4 - - - - SSE 17 22 9 12 1019.3 - -
21/05:30am 19.2 - - - - SSE 15 20 8 11 1019.1 - -
21/05:20am 19.2 - - - - SSE 15 - 8 - - 1018.8 -
21/05:00am 19.2 - - - - SSE 19 24 10 13 1018.8 - -
21/04:30am 19.3 - - - - SSE 17 22 9 12 1018.7 - -
21/04:20am 19.2 - - - - SSE 17 - 9 - - 1018.6 -
21/04:00am 19.1 - - - - SSE 19 24 10 13 1018.6 - -
21/03:30am 19.1 - - - - SE 15 20 8 11 1018.6 - -
21/03:20am 19.1 - - - - SSE 17 - 9 - - 1018.6 -
21/03:00am 19.2 - - - - SSE 19 24 10 13 1018.9 - -
21/02:30am 19.1 - - - - SE 17 22 9 12 1019.1 - -
21/02:20am 19.1 - - - - SSE 15 - 8 - - 1019.1 -
21/02:00am 19.0 - - - - SSE 13 19 7 10 1019.4 - -
21/01:30am 19.0 - - - - SE 15 22 8 12 1019.6 - -
21/01:20am 18.9 - - - - SSE 13 - 7 - - 1019.6 -
21/01:00am 18.9 - - - - SE 15 20 8 11 1019.9 - -
21/12:30am 18.8 - - - - SSE 15 20 8 11 1020.1 - -
21/12:20am 18.9 - - - - SSE 15 - 8 - - 1020.0 -
21/12:00am 18.8 - - - - SE 19 24 10 13 1020.2 - -
 
Date/Time
EST
Temp
°C
App
Temp
°C
Dew
Point
Rel
Hum
%
Delta-T
°C
Wind Press
QNH
hPa
Press
MSL
hPa
Rain
since 9 am
mm
Dir
 
Spd
km/h
Gust
km/h
Spd
kts
Gust
kts
20/11:30pm 19.0 - - - - ESE 15 24 8 13 1020.3 - -
20/11:20pm 18.9 - - - - SE 17 - 9 - - 1020.3 -
20/11:00pm 18.9 - - - - SSE 17 24 9 13 1020.5 - -
20/10:30pm 19.0 - - - - SE 19 24 10 13 1020.7 - -
20/10:20pm 18.9 - - - - SSE 19 - 10 - - 1020.7 -
20/10:00pm 18.9 - - - - SE 19 24 10 13 1020.9 - -
20/09:30pm 19.0 - - - - SE 19 24 10 13 1021.0 - -
20/09:20pm 18.9 - - - - SE 19 - 10 - - 1020.9 -
20/09:00pm 18.8 - - - - SE 22 30 12 16 1020.9 - -
20/08:30pm 18.9 - - - - SSE 20 28 11 15 1020.8 - -
20/08:20pm 18.9 - - - - SSE 22 - 12 - - 1020.7 -
20/08:00pm 18.8 - - - - SSE 24 32 13 17 1020.6 - -
20/07:30pm 18.9 - - - - SSE 26 32 14 17 1020.4 - -
20/07:20pm 18.8 - - - - SSE 24 - 13 - - 1020.3 -
20/07:00pm 18.9 - - - - SSE 22 33 12 18 1020.1 - -
20/06:30pm 19.0 - - - - S 28 33 15 18 1019.7 - -
20/06:20pm 18.9 - - - - SSE 26 - 14 - - 1019.5 -
20/06:00pm 18.9 - - - - SSE 26 33 14 18 1019.4 - -
20/05:30pm 19.0 - - - - SSE 22 30 12 16 1019.1 - -
20/05:20pm 19.0 - - - - SSE 20 - 11 - - 1018.9 -
20/05:00pm 19.1 - - - - SSE 22 28 12 15 1018.8 - -
20/04:30pm 19.0 - - - - SSE 24 30 13 16 1018.6 - -
20/04:20pm 19.4 - - - - SSE 24 - 13 - - 1018.4 -
20/04:00pm 19.1 - - - - SSE 24 33 13 18 1018.4 - -
20/03:30pm 19.3 - - - - SSE 22 32 12 17 1018.2 - -
20/03:20pm 19.2 - - - - SSE 22 - 12 - - 1018.1 -
20/03:00pm 19.4 - - - - SSE 24 35 13 19 1018.1 - -
20/02:30pm 19.5 - - - - SSE 26 32 14 17 1018.0 - -
20/02:20pm 19.5 - - - - SSE 26 - 14 - - 1017.9 -
20/02:00pm 19.6 - - - - SSE 26 33 14 18 1018.1 - -
20/01:30pm 19.9 - - - - SSE 24 32 13 17 1018.2 - -
20/01:20pm 20.2 - - - - SSE 15 - 8 - - 1018.2 -
20/01:00pm 20.0 - - - - SSE 19 20 10 11 1018.5 - -
20/12:30pm 19.9 - - - - SSW 17 20 9 11 1018.8 - -
20/12:20pm 19.8 - - - - S 19 - 10 - - 1018.8 -
20/12:00pm 19.7 - - - - SSW 20 26 11 14 1019.1 - -
20/11:30am 19.3 - - - - SSW 22 28 12 15 1019.3 - -
20/11:20am 19.3 - - - - S 22 - 12 - - 1019.3 -
20/11:00am 19.3 - - - - S 20 24 11 13 1019.6 - -
20/10:30am 19.5 - - - - S 19 22 10 12 1019.7 - -
20/10:20am 19.2 - - - - S 22 - 12 - - 1019.6 -
20/10:00am 19.4 - - - - S 20 26 11 14 1019.8 - -
20/09:30am 19.4 - - - - S 20 30 11 16 1019.8 - -
20/09:20am 19.3 - - - - SSE 20 - 11 - - 1019.7 -
20/09:00am 19.3 - - - - SSE 22 30 12 16 1019.6 - -
20/08:30am 19.5 - - - - SSE 20 28 11 15 1019.5 - -
20/08:20am 19.4 - - - - SSE 20 - 11 - - 1019.4 -
20/08:00am 19.7 - - - - SSE 20 24 11 13 1019.5 - -
20/07:30am 19.5 - - - - SE 19 26 10 14 1019.3 - -
20/07:20am 19.5 - - - - SSE 22 - 12 - - 1019.2 -
20/07:00am 19.3 - - - - SSE 20 30 11 16 1019.2 - -
20/06:30am 18.9 - - - - SE 22 32 12 17 1018.9 - -
20/06:20am 19.1 - - - - SSE 20 - 11 - - 1018.7 -
20/06:00am 19.0 - - - - SE 22 30 12 16 1018.6 - -
20/05:30am 19.0 - - - - SSE 26 32 14 17 1018.4 - -
20/05:20am 19.0 - - - - SSE 22 - 12 - - 1018.2 -
20/05:00am 19.2 - - - - SSE 26 32 14 17 1018.2 - -
20/04:30am 19.2 - - - - SSE 26 35 14 19 1018.1 - -
20/04:20am 19.2 - - - - SSE 26 - 14 - - 1018.0 -
20/04:00am 19.1 - - - - S 26 33 14 18 1018.2 - -
20/03:30am 19.2 - - - - SSE 26 35 14 19 1018.3 - -
20/03:20am 19.2 - - - - SSE 26 - 14 - - 1018.3 -
20/03:00am 19.3 - - - - SSE 26 35 14 19 1018.4 - -
20/02:30am 19.4 - - - - SSE 26 37 14 20 1018.5 - -
20/02:20am 19.4 - - - - S 26 - 14 - - 1018.5 -
20/02:00am 19.5 - - - - SSE 24 35 13 19 1018.7 - -
20/01:30am 19.4 - - - - S 28 33 15 18 1018.7 - -
20/01:20am 19.4 - - - - S 26 - 14 - - 1018.6 -
20/01:00am 19.3 - - - - S 26 33 14 18 1018.7 - -
20/12:30am 19.3 - - - - S 28 35 15 19 1019.4 - -
20/12:20am 19.3 - - - - S 32 - 17 - - 1019.3 -
20/12:00am 19.4 - - - - SSE 28 35 15 19 1019.2 - -
 
Date/Time
EST
Temp
°C
App
Temp
°C
Dew
Point
Rel
Hum
%
Delta-T
°C
Wind Press
QNH
hPa
Press
MSL
hPa
Rain
since 9 am
mm
Dir
 
Spd
km/h
Gust
km/h
Spd
kts
Gust
kts
19/11:30pm 19.1 - - - - S 30 41 16 22 1019.5 - -
19/11:20pm 19.1 - - - - S 26 - 14 - - 1019.2 -
19/11:00pm 19.0 - - - - S 26 35 14 19 1019.6 - -
19/10:30pm 18.9 - - - - S 30 35 16 19 1019.6 - -
19/10:20pm 18.9 - - - - S 30 - 16 - - 1019.4 -
19/10:00pm 18.9 - - - - SSE 28 35 15 19 1019.6 - -
19/09:30pm 19.0 - - - - S 32 39 17 21 1019.4 - -
19/09:20pm 18.7 - - - - S 30 - 16 - - 1019.2 -
19/09:00pm 18.5 - - - - S 32 37 17 20 1019.3 - -
19/08:30pm 18.6 - - - - S 32 39 17 21 1019.2 - -
19/08:20pm 18.6 - - - - S 32 - 17 - - 1019.0 -
19/08:00pm 18.6 - - - - S 32 39 17 21 1019.1 - -
19/07:30pm 18.2 - - - - S 30 33 16 18 1019.0 - -
19/07:20pm 18.4 - - - - S 30 - 16 - - 1018.8 -
19/07:00pm 18.1 - - - - S 30 35 16 19 1018.7 - -
19/06:30pm 17.8 - - - - S 30 35 16 19 1018.6 - -
19/06:20pm 17.7 - - - - S 28 - 15 - - 1018.5 -
19/06:00pm 17.7 - - - - S 26 33 14 18 1018.4 - -
19/05:30pm 17.7 - - - - S 24 32 13 17 1018.0 - -
19/05:20pm 17.8 - - - - SSW 24 - 13 - - 1017.8 -

Other Formats:

Comma delimited format used in spreadsheet applications
http://www.bom.gov.au/fwo/IDQ60801/IDQ60801.94371.axf

JavaScript Object Notation format (JSON) in row-major order
http://www.bom.gov.au/fwo/IDQ60801/IDQ60801.94371.json